Time;durP1;ratioP1;P1;durP2;ratioP2;P2;SDS_P1;SDS_P2;PMS_P1;PMS_P2;Temp;Humidity;BMP_temperature;BMP_pressure;BME280_temperature;BME280_humidity;BME280_pressure;Samples;Min_cycle;Max_cycle;Signal;HPM_P1;HPM_P2
2024/01/06 00:01:38;;;;;;;34.97;16.70;;;;;;;;;;5032956;28;20083;-76
2024/01/06 00:04:03;;;;;;;37.67;17.20;;;;;;;;;;5032550;28;20036;-75
2024/01/06 00:06:29;;;;;;;34.87;16.63;;;;;;;;;;5032360;28;20025;-76
2024/01/06 00:08:55;;;;;;;32.57;15.33;;;;;;;;;;5031973;28;20055;-77
2024/01/06 00:11:21;;;;;;;35.73;17.27;;;;;;;;;;5032817;28;20108;-76
2024/01/06 00:13:47;;;;;;;31.97;15.13;;;;;;;;;;5032971;28;20032;-74
2024/01/06 00:16:18;;;;;;;26.80;14.00;;;;;;;;;;5031123;28;20034;-74
2024/01/06 00:18:46;;;;;;;34.10;16.02;;;;;;;;;;5031381;28;20090;-76
2024/01/06 00:21:11;;;;;;;30.70;13.87;;;;;;;;;;5031452;28;20456;-78
2024/01/06 00:23:37;;;;;;;37.33;15.73;;;;;;;;;;5031999;28;20056;-76
2024/01/06 00:26:03;;;;;;;39.77;15.60;;;;;;;;;;5031153;28;20021;-75
2024/01/06 00:28:29;;;;;;;31.73;15.20;;;;;;;;;;5036982;28;20025;-74
2024/01/06 00:30:56;;;;;;;31.90;15.50;;;;;;;;;;5034721;28;20032;-75
2024/01/06 00:33:22;;;;;;;25.07;13.93;;;;;;;;;;5052643;28;20059;-77
2024/01/06 00:35:47;;;;;;;33.37;13.37;;;;;;;;;;5052350;28;20020;-76
2024/01/06 00:38:13;;;;;;;28.93;14.47;;;;;;;;;;5052200;28;20087;-77
2024/01/06 00:40:38;;;;;;;35.00;13.33;;;;;;;;;;5052317;28;20025;-74
2024/01/06 00:43:04;;;;;;;32.07;13.50;;;;;;;;;;5050774;28;20103;-75
2024/01/06 00:45:31;;;;;;;32.37;14.60;;;;;;;;;;5051424;28;20029;-74
2024/01/06 00:47:56;;;;;;;28.00;14.00;;;;;;;;;;5050433;28;20028;-77
2024/01/06 00:50:22;;;;;;;28.87;13.47;;;;;;;;;;5050106;28;20029;-76
2024/01/06 00:52:48;;;;;;;30.20;14.13;;;;;;;;;;5044342;28;20045;-75
2024/01/06 00:55:13;;;;;;;32.63;14.43;;;;;;;;;;5032857;28;20056;-76
2024/01/06 00:57:39;;;;;;;30.43;15.27;;;;;;;;;;5031039;28;20138;-74
2024/01/06 01:00:05;;;;;;;28.80;14.57;;;;;;;;;;5031889;28;20029;-76
2024/01/06 01:02:31;;;;;;;28.43;14.73;;;;;;;;;;5030416;28;20026;-78
2024/01/06 01:04:57;;;;;;;38.47;14.47;;;;;;;;;;5030717;28;20578;-75
2024/01/06 01:07:24;;;;;;;32.13;14.43;;;;;;;;;;5032107;28;20021;-75
2024/01/06 01:09:50;;;;;;;28.97;14.33;;;;;;;;;;5030723;28;20420;-75
2024/01/06 01:12:15;;;;;;;30.53;14.80;;;;;;;;;;5030666;28;20041;-76
2024/01/06 01:14:41;;;;;;;34.63;15.43;;;;;;;;;;5032739;28;20558;-75
2024/01/06 01:17:06;;;;;;;34.80;14.50;;;;;;;;;;5038193;28;20040;-76
2024/01/06 01:19:32;;;;;;;34.90;16.23;;;;;;;;;;5051867;28;20089;-75
2024/01/06 01:21:57;;;;;;;34.87;15.57;;;;;;;;;;5051196;28;20418;-74
2024/01/06 01:24:23;;;;;;;36.63;16.33;;;;;;;;;;5049988;28;20098;-75
2024/01/06 01:26:49;;;;;;;34.53;15.67;;;;;;;;;;5051063;28;20365;-73
2024/01/06 01:29:19;;;;;;;35.10;16.60;;;;;;;;;;5048906;28;20029;-73
2024/01/06 01:31:46;;;;;;;34.23;17.03;;;;;;;;;;5049517;28;20033;-74
2024/01/06 01:34:11;;;;;;;38.13;16.80;;;;;;;;;;5049159;28;20094;-74
2024/01/06 01:36:37;;;;;;;32.43;17.50;;;;;;;;;;5049634;28;20029;-75
2024/01/06 01:39:03;;;;;;;35.87;16.37;;;;;;;;;;5049091;28;20037;-74
2024/01/06 01:41:29;;;;;;;37.83;17.40;;;;;;;;;;5050805;28;20017;-75
2024/01/06 01:43:57;;;;;;;39.90;17.93;;;;;;;;;;5049621;28;20039;-76
2024/01/06 01:46:27;;;;;;;39.60;19.73;;;;;;;;;;5049871;28;20021;-77
2024/01/06 01:48:58;;;;;;;42.47;19.37;;;;;;;;;;5050683;28;20025;-75
2024/01/06 01:51:29;;;;;;;41.47;20.87;;;;;;;;;;5052493;28;20041;-75
2024/01/06 01:53:56;;;;;;;48.13;21.58;;;;;;;;;;5043810;28;20048;-73
2024/01/06 01:56:23;;;;;;;45.97;20.90;;;;;;;;;;5029029;28;20067;-73
2024/01/06 01:58:48;;;;;;;41.33;21.03;;;;;;;;;;5030999;28;20064;-74
2024/01/06 02:01:15;;;;;;;48.73;21.67;;;;;;;;;;5028829;28;20053;-76
2024/01/06 02:03:43;;;;;;;46.13;22.60;;;;;;;;;;5034739;28;20089;-75
2024/01/06 02:06:09;;;;;;;48.43;23.10;;;;;;;;;;5048066;28;20028;-72
2024/01/06 02:08:35;;;;;;;45.30;22.70;;;;;;;;;;5034827;28;20447;-75
2024/01/06 02:11:01;;;;;;;45.30;22.73;;;;;;;;;;5028377;28;20033;-76
2024/01/06 02:13:34;;;;;;;48.27;22.53;;;;;;;;;;5030163;28;20512;-74
2024/01/06 02:16:00;;;;;;;50.87;24.23;;;;;;;;;;5028933;28;20107;-74
2024/01/06 02:18:25;;;;;;;51.37;23.77;;;;;;;;;;5029572;28;20017;-78
2024/01/06 02:20:53;;;;;;;49.60;23.30;;;;;;;;;;5012112;28;20052;-77
2024/01/06 02:23:18;;;;;;;50.70;23.83;;;;;;;;;;5028389;28;20037;-75
2024/01/06 02:25:44;;;;;;;37.87;19.63;;;;;;;;;;5028680;28;20366;-73
2024/01/06 02:28:09;;;;;;;43.17;20.03;;;;;;;;;;5036716;28;20033;-75
2024/01/06 02:30:35;;;;;;;45.37;21.70;;;;;;;;;;5049796;28;20057;-76
2024/01/06 02:33:00;;;;;;;50.40;23.80;;;;;;;;;;5048589;28;20071;-74
2024/01/06 02:35:26;;;;;;;38.73;21.97;;;;;;;;;;5048061;28;20476;-75
2024/01/06 02:37:52;;;;;;;65.30;27.53;;;;;;;;;;5049842;28;20031;-73
2024/01/06 02:40:17;;;;;;;49.07;24.93;;;;;;;;;;5038432;28;20029;-77
2024/01/06 02:42:43;;;;;;;44.87;23.30;;;;;;;;;;5028791;28;20043;-77
2024/01/06 02:45:11;;;;;;;44.37;21.67;;;;;;;;;;5030465;28;20106;-74
2024/01/06 02:47:37;;;;;;;43.97;21.87;;;;;;;;;;5029332;28;20029;-77
2024/01/06 02:50:03;;;;;;;41.83;19.97;;;;;;;;;;5029334;28;20030;-76
2024/01/06 02:52:29;;;;;;;41.63;19.70;;;;;;;;;;5037447;28;20071;-74
2024/01/06 02:54:54;;;;;;;41.00;19.37;;;;;;;;;;5049541;28;20382;-75
2024/01/06 02:57:20;;;;;;;33.57;19.07;;;;;;;;;;5047878;28;20388;-73
2024/01/06 02:59:46;;;;;;;37.23;19.80;;;;;;;;;;5048193;28;20033;-74
2024/01/06 03:02:11;;;;;;;36.07;18.60;;;;;;;;;;5048087;28;20021;-75
2024/01/06 03:04:37;;;;;;;38.20;19.53;;;;;;;;;;5036493;28;20068;-76
2024/01/06 03:07:03;;;;;;;38.40;19.17;;;;;;;;;;5034158;28;20056;-73
2024/01/06 03:09:28;;;;;;;39.87;20.53;;;;;;;;;;5038613;28;20068;-75
2024/01/06 03:11:54;;;;;;;38.90;21.67;;;;;;;;;;5034761;28;20101;-75
2024/01/06 03:14:19;;;;;;;39.73;19.90;;;;;;;;;;5033263;28;20449;-75
2024/01/06 03:16:45;;;;;;;42.03;21.63;;;;;;;;;;5043466;28;20036;-75
2024/01/06 03:19:11;;;;;;;45.77;21.47;;;;;;;;;;5051915;28;20075;-76
2024/01/06 03:21:36;;;;;;;41.73;19.77;;;;;;;;;;5052318;28;20049;-74
2024/01/06 03:24:02;;;;;;;40.87;19.10;;;;;;;;;;5052985;28;20499;-75
2024/01/06 03:26:27;;;;;;;43.07;20.10;;;;;;;;;;5055797;28;20261;-74
2024/01/06 03:28:54;;;;;;;40.03;19.60;;;;;;;;;;5042336;28;20388;-75
2024/01/06 03:31:22;;;;;;;38.93;19.83;;;;;;;;;;5033150;28;20025;-73
2024/01/06 03:33:47;;;;;;;41.73;20.47;;;;;;;;;;5031799;28;20037;-75
2024/01/06 03:36:15;;;;;;;37.97;20.10;;;;;;;;;;5031512;28;20033;-75
2024/01/06 03:38:41;;;;;;;38.43;19.83;;;;;;;;;;5033805;28;20033;-74
2024/01/06 03:41:07;;;;;;;38.07;19.00;;;;;;;;;;5045315;28;20087;-73
2024/01/06 03:43:33;;;;;;;40.57;19.83;;;;;;;;;;5053673;28;20020;-75
2024/01/06 03:46:00;;;;;;;44.03;20.13;;;;;;;;;;5051925;28;20025;-73
2024/01/06 03:48:26;;;;;;;37.83;21.00;;;;;;;;;;5053268;28;20017;-75
2024/01/06 03:50:51;;;;;;;39.73;17.50;;;;;;;;;;5051947;28;20559;-74
2024/01/06 03:53:17;;;;;;;40.23;20.13;;;;;;;;;;5038653;28;20408;-74
2024/01/06 03:55:43;;;;;;;34.47;19.10;;;;;;;;;;5032590;28;20033;-74
2024/01/06 03:58:08;;;;;;;37.77;20.03;;;;;;;;;;5037191;28;20030;-69
2024/01/06 04:00:34;;;;;;;38.07;18.77;;;;;;;;;;5042170;28;20055;-75
2024/01/06 04:03:00;;;;;;;38.00;18.20;;;;;;;;;;5040534;28;20465;-78
2024/01/06 04:05:25;;;;;;;38.97;18.50;;;;;;;;;;5044999;28;20043;-76
2024/01/06 04:07:51;;;;;;;38.33;18.83;;;;;;;;;;5051566;28;20029;-76
2024/01/06 04:10:16;;;;;;;35.40;18.17;;;;;;;;;;5038345;28;20025;-76
2024/01/06 04:12:42;;;;;;;38.93;18.83;;;;;;;;;;5033515;28;20056;-76
2024/01/06 04:15:08;;;;;;;35.57;18.30;;;;;;;;;;5034774;28;20021;-75
2024/01/06 04:17:34;;;;;;;37.40;19.50;;;;;;;;;;5047876;28;20120;-76
2024/01/06 04:19:59;;;;;;;39.90;19.40;;;;;;;;;;5050342;28;20032;-75
2024/01/06 04:22:25;;;;;;;41.17;19.37;;;;;;;;;;5051372;28;20112;-74
2024/01/06 04:24:51;;;;;;;40.27;18.83;;;;;;;;;;5052001;28;20033;-75
2024/01/06 04:27:17;;;;;;;35.60;19.87;;;;;;;;;;5050875;28;20098;-75
2024/01/06 04:29:42;;;;;;;42.43;20.60;;;;;;;;;;5032471;28;20030;-76
2024/01/06 04:32:08;;;;;;;34.37;18.87;;;;;;;;;;5032027;28;20064;-76
2024/01/06 04:34:34;;;;;;;40.93;19.83;;;;;;;;;;5030540;28;20032;-76
2024/01/06 04:36:59;;;;;;;34.37;19.57;;;;;;;;;;5030554;28;20082;-75
2024/01/06 04:39:25;;;;;;;35.60;19.03;;;;;;;;;;5031655;28;20034;-76
2024/01/06 04:41:50;;;;;;;38.80;19.60;;;;;;;;;;5049549;28;20040;-75
2024/01/06 04:44:17;;;;;;;40.50;19.50;;;;;;;;;;5050034;28;20063;-74
2024/01/06 04:46:43;;;;;;;43.70;18.97;;;;;;;;;;5050275;28;20036;-75
2024/01/06 04:49:10;;;;;;;37.73;19.80;;;;;;;;;;5051898;28;20029;-75
2024/01/06 04:51:35;;;;;;;43.43;20.23;;;;;;;;;;5046497;28;20061;-74
2024/01/06 04:54:01;;;;;;;44.90;20.43;;;;;;;;;;5030619;28;20114;-73
2024/01/06 04:56:26;;;;;;;37.30;19.10;;;;;;;;;;5032251;28;20076;-75
2024/01/06 04:58:52;;;;;;;41.47;20.57;;;;;;;;;;5033301;28;20051;-76
2024/01/06 05:01:18;;;;;;;38.80;19.73;;;;;;;;;;5031195;28;20017;-74
2024/01/06 05:03:43;;;;;;;38.57;20.97;;;;;;;;;;5031000;28;20032;-74
2024/01/06 05:06:09;;;;;;;40.60;20.47;;;;;;;;;;5030120;28;20116;-75
2024/01/06 05:08:38;;;;;;;39.13;19.13;;;;;;;;;;5029768;28;20380;-74
2024/01/06 05:11:05;;;;;;;40.30;19.20;;;;;;;;;;5031503;28;20127;-74
2024/01/06 05:13:30;;;;;;;47.27;22.40;;;;;;;;;;5030643;28;20473;-78
2024/01/06 05:15:56;;;;;;;44.10;20.60;;;;;;;;;;5038832;28;20126;-75
2024/01/06 05:18:22;;;;;;;38.67;20.17;;;;;;;;;;5050131;28;20032;-73
2024/01/06 05:20:47;;;;;;;38.13;19.20;;;;;;;;;;5033451;28;20123;-74
2024/01/06 05:23:13;;;;;;;46.83;23.60;;;;;;;;;;5051415;28;20455;-72
2024/01/06 05:25:39;;;;;;;38.03;20.47;;;;;;;;;;5051731;28;20480;-73
2024/01/06 05:28:05;;;;;;;43.33;21.87;;;;;;;;;;5044689;28;20436;-76
2024/01/06 05:30:30;;;;;;;47.53;20.40;;;;;;;;;;5013135;28;20457;-76
2024/01/06 05:32:56;;;;;;;40.60;18.47;;;;;;;;;;5030966;28;20417;-73
2024/01/06 05:35:21;;;;;;;34.40;16.73;;;;;;;;;;5030057;28;20150;-75
2024/01/06 05:37:47;;;;;;;35.17;17.97;;;;;;;;;;5032312;28;20098;-75
2024/01/06 05:40:14;;;;;;;36.97;17.27;;;;;;;;;;5035481;28;20087;-77
2024/01/06 05:42:40;;;;;;;37.77;17.37;;;;;;;;;;5051419;28;20115;-73
2024/01/06 05:45:06;;;;;;;38.33;17.23;;;;;;;;;;5049764;28;20123;-73
2024/01/06 05:47:32;;;;;;;38.27;17.03;;;;;;;;;;5050385;28;20164;-74
2024/01/06 05:49:58;;;;;;;31.37;15.93;;;;;;;;;;5052113;28;20032;-74
2024/01/06 05:52:24;;;;;;;36.43;17.50;;;;;;;;;;5045399;28;20049;-75
2024/01/06 05:54:49;;;;;;;40.10;18.07;;;;;;;;;;5032020;28;20120;-75
2024/01/06 05:57:15;;;;;;;38.07;16.53;;;;;;;;;;5032632;28;20232;-71
2024/01/06 05:59:41;;;;;;;33.93;15.60;;;;;;;;;;5030717;28;20025;-77
2024/01/06 06:02:06;;;;;;;33.37;15.63;;;;;;;;;;5030317;28;20025;-75
2024/01/06 06:04:32;;;;;;;33.13;16.67;;;;;;;;;;5038285;28;20021;-75
2024/01/06 06:06:57;;;;;;;38.43;16.63;;;;;;;;;;5049933;28;20043;-75
2024/01/06 06:09:23;;;;;;;39.33;17.37;;;;;;;;;;5050399;28;20040;-76
2024/01/06 06:11:48;;;;;;;35.60;17.43;;;;;;;;;;5049972;28;20124;-76
2024/01/06 06:14:14;;;;;;;33.17;16.10;;;;;;;;;;5048682;28;20029;-73
2024/01/06 06:16:40;;;;;;;35.73;15.77;;;;;;;;;;5041779;28;20091;-75
2024/01/06 06:19:06;;;;;;;30.13;14.57;;;;;;;;;;5030152;28;20412;-74
2024/01/06 06:21:31;;;;;;;31.07;15.77;;;;;;;;;;5028535;28;20112;-75
2024/01/06 06:23:57;;;;;;;32.53;15.00;;;;;;;;;;5028689;28;20369;-73
2024/01/06 06:26:22;;;;;;;32.90;15.07;;;;;;;;;;5029661;28;20032;-76
2024/01/06 06:28:48;;;;;;;30.57;14.03;;;;;;;;;;5037691;28;20063;-77
2024/01/06 06:31:14;;;;;;;32.60;13.67;;;;;;;;;;5049889;28;20064;-76
2024/01/06 06:33:39;;;;;;;34.23;14.37;;;;;;;;;;5048672;28;20067;-75
2024/01/06 06:36:06;;;;;;;34.13;15.13;;;;;;;;;;5054927;28;20128;-76
2024/01/06 06:38:31;;;;;;;28.40;15.17;;;;;;;;;;5052004;28;20457;-75
2024/01/06 06:40:57;;;;;;;29.17;13.27;;;;;;;;;;5041252;28;20104;-76
2024/01/06 06:43:22;;;;;;;28.63;13.63;;;;;;;;;;5029129;28;20110;-75
2024/01/06 06:45:48;;;;;;;28.17;12.00;;;;;;;;;;5031271;28;20104;-73
2024/01/06 06:48:14;;;;;;;27.23;12.57;;;;;;;;;;5029804;28;20032;-74
2024/01/06 06:50:41;;;;;;;33.73;13.20;;;;;;;;;;5033664;28;20461;-75
2024/01/06 06:53:08;;;;;;;26.67;12.30;;;;;;;;;;5031279;28;20057;-75
2024/01/06 06:55:33;;;;;;;27.07;12.70;;;;;;;;;;5052294;28;20044;-74
2024/01/06 06:57:59;;;;;;;32.27;13.67;;;;;;;;;;5053318;28;20029;-77
2024/01/06 07:00:25;;;;;;;28.87;12.40;;;;;;;;;;5051700;28;20506;-78
2024/01/06 07:02:50;;;;;;;31.80;13.80;;;;;;;;;;5049294;28;20059;-75
2024/01/06 07:05:17;;;;;;;31.33;14.73;;;;;;;;;;5036474;28;20420;-73
2024/01/06 07:07:46;;;;;;;34.23;14.20;;;;;;;;;;5030276;28;20476;-77
2024/01/06 07:10:13;;;;;;;32.60;13.33;;;;;;;;;;5029672;28;20106;-78
2024/01/06 07:12:40;;;;;;;36.00;15.00;;;;;;;;;;5029890;28;20026;-76
2024/01/06 07:15:07;;;;;;;35.77;14.73;;;;;;;;;;5028944;28;20444;-77
2024/01/06 07:17:34;;;;;;;34.10;13.83;;;;;;;;;;5043143;28;20108;-76
2024/01/06 07:20:00;;;;;;;39.87;15.73;;;;;;;;;;5050048;28;20245;-78
2024/01/06 07:22:25;;;;;;;42.47;16.20;;;;;;;;;;5049260;28;20090;-76
2024/01/06 07:24:51;;;;;;;39.97;15.67;;;;;;;;;;5053835;28;20032;-78
2024/01/06 07:27:16;;;;;;;40.43;15.43;;;;;;;;;;5042563;28;20057;-77
2024/01/06 07:29:42;;;;;;;35.67;16.07;;;;;;;;;;5030785;28;20131;-77
2024/01/06 07:32:08;;;;;;;41.37;17.03;;;;;;;;;;5029502;28;20103;-77
2024/01/06 07:34:33;;;;;;;49.67;18.07;;;;;;;;;;5028840;28;20033;-77
2024/01/06 07:37:00;;;;;;;51.07;18.43;;;;;;;;;;5030587;28;20101;-77
2024/01/06 07:39:25;;;;;;;41.20;18.47;;;;;;;;;;5044640;28;20025;-78
2024/01/06 07:41:51;;;;;;;42.87;17.77;;;;;;;;;;5050716;28;20375;-76
2024/01/06 07:44:22;;;;;;;45.20;18.87;;;;;;;;;;5049368;28;20135;-77
2024/01/06 07:46:48;;;;;;;49.72;20.60;;;;;;;;;;5048615;28;20391;-75
2024/01/06 07:49:14;;;;;;;52.23;18.87;;;;;;;;;;5048769;28;20033;-78
2024/01/06 07:51:39;;;;;;;53.93;19.03;;;;;;;;;;5049474;28;20037;-79
2024/01/06 07:54:06;;;;;;;50.50;18.60;;;;;;;;;;5050280;28;20033;-77
2024/01/06 07:56:32;;;;;;;64.23;23.87;;;;;;;;;;5059736;28;20033;-77
2024/01/06 07:58:58;;;;;;;54.53;21.23;;;;;;;;;;5041933;28;20032;-77
2024/01/06 08:01:23;;;;;;;50.30;19.60;;;;;;;;;;5054852;28;20314;-76
2024/01/06 08:03:49;;;;;;;59.23;20.63;;;;;;;;;;5036109;28;20419;-77
2024/01/06 08:06:15;;;;;;;54.73;21.27;;;;;;;;;;5043994;28;20034;-74
2024/01/06 08:08:41;;;;;;;52.57;18.37;;;;;;;;;;5048930;28;20025;-76
2024/01/06 08:11:06;;;;;;;51.77;19.67;;;;;;;;;;5041036;28;20377;-78
2024/01/06 08:13:32;;;;;;;53.13;19.57;;;;;;;;;;5031426;28;20056;-77
2024/01/06 08:15:59;;;;;;;60.27;22.90;;;;;;;;;;5049415;28;20044;-76
2024/01/06 08:18:24;;;;;;;47.57;19.00;;;;;;;;;;5051605;28;20602;-75
2024/01/06 08:20:50;;;;;;;49.97;20.83;;;;;;;;;;5053041;28;20136;-77
2024/01/06 08:23:17;;;;;;;56.70;20.90;;;;;;;;;;5053594;28;20039;-77
2024/01/06 08:25:43;;;;;;;69.60;24.47;;;;;;;;;;5055472;28;20454;-79
2024/01/06 08:28:09;;;;;;;62.97;23.77;;;;;;;;;;5053276;28;20033;-76
2024/01/06 08:30:35;;;;;;;72.70;23.27;;;;;;;;;;5051347;28;20029;-76
2024/01/06 08:33:01;;;;;;;68.87;22.47;;;;;;;;;;5053835;28;20511;-80
2024/01/06 08:35:27;;;;;;;70.40;22.90;;;;;;;;;;5053709;28;20036;-77
2024/01/06 08:37:54;;;;;;;67.40;24.83;;;;;;;;;;5048134;28;20033;-78
2024/01/06 08:40:19;;;;;;;72.80;24.50;;;;;;;;;;5033117;28;20048;-77
2024/01/06 08:42:45;;;;;;;71.23;23.70;;;;;;;;;;5033076;28;20033;-79
2024/01/06 08:45:13;;;;;;;64.33;23.07;;;;;;;;;;5033164;28;20029;-77
2024/01/06 08:47:39;;;;;;;64.77;22.43;;;;;;;;;;5033138;28;20083;-76
2024/01/06 08:50:05;;;;;;;71.30;24.33;;;;;;;;;;5036714;28;20032;-78
2024/01/06 08:52:31;;;;;;;68.63;22.83;;;;;;;;;;5055390;28;20056;-72
2024/01/06 08:54:56;;;;;;;61.47;22.97;;;;;;;;;;5059506;28;20526;-78
2024/01/06 08:57:22;;;;;;;64.83;23.70;;;;;;;;;;5056000;28;20081;-77
2024/01/06 08:59:47;;;;;;;72.73;24.27;;;;;;;;;;5055594;28;20082;-75
2024/01/06 09:02:13;;;;;;;67.20;22.33;;;;;;;;;;5050978;28;20021;-75
2024/01/06 09:04:39;;;;;;;67.53;24.10;;;;;;;;;;5031680;28;20072;-75
2024/01/06 09:07:05;;;;;;;66.97;24.70;;;;;;;;;;5032689;28;20029;-78
2024/01/06 09:09:30;;;;;;;59.97;22.43;;;;;;;;;;5030580;28;20033;-74
2024/01/06 09:11:56;;;;;;;60.00;24.10;;;;;;;;;;5031578;28;20056;-73
2024/01/06 09:14:21;;;;;;;58.83;24.17;;;;;;;;;;5030423;28;20032;-74
2024/01/06 09:16:47;;;;;;;65.23;23.80;;;;;;;;;;5050388;28;20029;-78
2024/01/06 09:19:13;;;;;;;63.83;24.67;;;;;;;;;;5051832;28;20044;-77
2024/01/06 09:21:38;;;;;;;65.90;25.13;;;;;;;;;;5050469;28;20025;-78
2024/01/06 09:24:08;;;;;;;65.40;24.20;;;;;;;;;;5050745;28;20028;-78
2024/01/06 09:26:34;;;;;;;56.93;23.23;;;;;;;;;;5048914;28;20357;-73
2024/01/06 09:29:02;;;;;;;55.23;23.20;;;;;;;;;;5041774;28;20040;-75
2024/01/06 09:31:29;;;;;;;53.13;22.70;;;;;;;;;;5043874;28;20033;-77
2024/01/06 09:33:55;;;;;;;54.63;24.00;;;;;;;;;;5056912;28;20032;-76
2024/01/06 09:36:20;;;;;;;53.63;22.37;;;;;;;;;;5057663;28;20037;-74
2024/01/06 09:38:46;;;;;;;53.90;23.70;;;;;;;;;;5050399;28;20199;-76
2024/01/06 09:41:12;;;;;;;55.70;23.40;;;;;;;;;;5051919;28;20040;-76
2024/01/06 09:43:38;;;;;;;50.67;23.50;;;;;;;;;;5050152;28;20040;-74
2024/01/06 09:46:40;;;;;;;49.33;22.17;;;;;;;;;;5049860;28;20025;-77
2024/01/06 09:49:06;;;;;;;47.63;20.27;;;;;;;;;;5033285;28;20033;-74
2024/01/06 09:51:37;;;;;;;46.00;22.37;;;;;;;;;;5049027;28;20040;-76
2024/01/06 09:54:08;;;;;;;50.30;22.20;;;;;;;;;;5049969;28;20514;-78
2024/01/06 09:56:34;;;;;;;50.47;22.60;;;;;;;;;;5049427;28;20032;-77
2024/01/06 09:59:00;;;;;;;48.80;21.93;;;;;;;;;;5050973;28;20064;-76
2024/01/06 10:01:26;;;;;;;56.10;24.50;;;;;;;;;;5032878;28;20073;-78
2024/01/06 10:03:52;;;;;;;52.03;23.07;;;;;;;;;;5042074;28;20093;-76
2024/01/06 10:06:18;;;;;;;57.40;23.77;;;;;;;;;;5029594;28;20033;-75
2024/01/06 10:08:44;;;;;;;54.30;23.30;;;;;;;;;;5030743;28;20025;-77
2024/01/06 10:11:10;;;;;;;57.17;24.73;;;;;;;;;;5029055;28;20048;-76
2024/01/06 10:13:38;;;;;;;59.93;23.40;;;;;;;;;;5030331;28;20038;-76
2024/01/06 10:16:07;;;;;;;56.77;23.50;;;;;;;;;;5029413;28;20037;-76
2024/01/06 10:18:34;;;;;;;53.47;25.20;;;;;;;;;;5031366;28;20071;-78
2024/01/06 10:21:00;;;;;;;58.77;24.80;;;;;;;;;;5030420;28;20176;-76
2024/01/06 10:23:29;;;;;;;47.33;24.57;;;;;;;;;;5029015;28;20417;-75
2024/01/06 10:25:55;;;;;;;60.27;25.57;;;;;;;;;;5029085;28;20029;-77
2024/01/06 10:28:25;;;;;;;58.57;25.17;;;;;;;;;;5040977;28;20498;-77
2024/01/06 10:30:55;;;;;;;54.27;25.40;;;;;;;;;;5050075;28;20032;-76
2024/01/06 10:33:22;;;;;;;57.37;26.43;;;;;;;;;;5032860;28;20342;-78
2024/01/06 10:35:48;;;;;;;54.00;25.23;;;;;;;;;;5050501;28;20348;-79
2024/01/06 10:38:15;;;;;;;55.17;25.10;;;;;;;;;;5053471;28;20021;-76
2024/01/06 10:40:59;;;;;;;63.70;27.97;;;;;;;;;;5038087;28;20076;-76
2024/01/06 10:43:29;;;;;;;59.37;25.93;;;;;;;;;;5029918;28;20145;-76
2024/01/06 10:46:04;;;;;;;64.17;24.67;;;;;;;;;;5028885;28;20033;-76
2024/01/06 10:48:31;;;;;;;55.80;26.30;;;;;;;;;;5032876;28;20060;-75
2024/01/06 10:50:58;;;;;;;55.63;24.23;;;;;;;;;;5030475;28;20033;-75
2024/01/06 10:53:26;;;;;;;55.73;25.80;;;;;;;;;;5051665;28;20055;-78
2024/01/06 10:55:54;;;;;;;59.27;24.73;;;;;;;;;;5051995;28;20029;-77
2024/01/06 10:58:21;;;;;;;54.67;23.48;;;;;;;;;;5050481;28;20025;-77
2024/01/06 11:00:48;;;;;;;71.13;27.67;;;;;;;;;;5032206;28;20053;-75
2024/01/06 11:03:15;;;;;;;62.95;25.38;;;;;;;;;;5051023;28;20233;-77
2024/01/06 11:05:43;;;;;;;55.07;25.30;;;;;;;;;;5048567;28;20032;-78
2024/01/06 11:08:10;;;;;;;64.87;25.90;;;;;;;;;;5032641;28;20052;-77
2024/01/06 11:10:37;;;;;;;55.00;25.10;;;;;;;;;;5052767;28;20067;-77
2024/01/06 11:13:13;;;;;;;58.20;26.17;;;;;;;;;;5052154;28;20025;-75
2024/01/06 11:15:42;;;;;;;54.93;23.50;;;;;;;;;;5046979;28;20018;-77
2024/01/06 11:18:08;;;;;;;55.93;24.87;;;;;;;;;;5041302;28;20029;-77
2024/01/06 11:20:33;;;;;;;57.72;25.95;;;;;;;;;;5028505;28;20116;-76
2024/01/06 11:23:22;;;;;;;64.63;29.57;;;;;;;;;;5029424;28;20163;-76
2024/01/06 11:25:52;;;;;;;62.63;27.38;;;;;;;;;;5012792;28;20053;-75
2024/01/06 11:28:18;;;;;;;59.43;26.07;;;;;;;;;;5038023;28;20032;-75
2024/01/06 11:30:45;;;;;;;58.87;25.00;;;;;;;;;;5053803;28;20481;-78
2024/01/06 11:33:11;;;;;;;54.00;24.20;;;;;;;;;;5053197;28;20112;-75
2024/01/06 11:35:39;;;;;;;56.10;24.03;;;;;;;;;;5054193;28;20483;-76
2024/01/06 11:38:07;;;;;;;63.13;26.47;;;;;;;;;;5055940;28;20032;-76
2024/01/06 11:40:37;;;;;;;55.30;25.90;;;;;;;;;;5047807;28;20029;-78
2024/01/06 11:43:06;;;;;;;57.80;24.80;;;;;;;;;;5019562;28;20029;-78
2024/01/06 11:45:32;;;;;;;58.63;25.77;;;;;;;;;;5034102;28;20029;-78
2024/01/06 11:48:02;;;;;;;62.63;26.88;;;;;;;;;;5033914;28;20369;-76
2024/01/06 11:50:28;;;;;;;58.00;24.23;;;;;;;;;;5033306;28;20171;-75
2024/01/06 11:52:55;;;;;;;52.77;24.53;;;;;;;;;;5033458;28;20504;-77
2024/01/06 11:55:21;;;;;;;55.53;25.10;;;;;;;;;;5031986;28;20491;-78
2024/01/06 11:57:47;;;;;;;55.72;23.63;;;;;;;;;;5047879;28;20041;-78
2024/01/06 12:00:16;;;;;;;58.47;24.40;;;;;;;;;;5052545;28;20078;-75
2024/01/06 12:02:42;;;;;;;61.80;25.47;;;;;;;;;;5056642;28;20036;-77
2024/01/06 12:05:17;;;;;;;61.03;26.70;;;;;;;;;;5042452;28;20040;-77
2024/01/06 12:07:53;;;;;;;57.73;25.47;;;;;;;;;;5033538;28;20116;-77
2024/01/06 12:10:21;;;;;;;60.33;26.37;;;;;;;;;;5031439;28;20036;-76
2024/01/06 12:13:01;;;;;;;65.33;25.77;;;;;;;;;;5031602;28;20036;-74
2024/01/06 12:15:29;;;;;;;55.63;25.37;;;;;;;;;;5032271;28;20057;-77
2024/01/06 12:17:54;;;;;;;62.83;25.50;;;;;;;;;;5037456;28;20057;-76
2024/01/06 12:20:21;;;;;;;56.90;24.50;;;;;;;;;;5042132;28;20079;-74
2024/01/06 12:22:47;;;;;;;59.33;22.80;;;;;;;;;;5040857;28;20096;-76
2024/01/06 12:25:15;;;;;;;55.33;24.00;;;;;;;;;;5031190;28;20052;-75
2024/01/06 12:27:50;;;;;;;59.83;24.50;;;;;;;;;;5014646;28;20041;-72
2024/01/06 12:30:19;;;;;;;60.33;22.90;;;;;;;;;;5014026;28;20411;-77
2024/01/06 12:32:49;;;;;;;61.57;23.90;;;;;;;;;;5030490;28;20033;-75
2024/01/06 12:35:15;;;;;;;66.97;23.80;;;;;;;;;;5014474;28;20052;-76
2024/01/06 12:37:46;;;;;;;67.57;23.10;;;;;;;;;;5030935;28;20084;-79
2024/01/06 12:40:13;;;;;;;63.43;22.70;;;;;;;;;;5031849;28;20047;-76
2024/01/06 12:42:39;;;;;;;53.53;22.88;;;;;;;;;;5031046;28;20558;-74
2024/01/06 12:45:06;;;;;;;62.37;22.87;;;;;;;;;;5030611;28;20033;-79
2024/01/06 12:47:32;;;;;;;53.90;23.37;;;;;;;;;;5032072;28;20057;-77
2024/01/06 12:49:58;;;;;;;50.87;21.20;;;;;;;;;;5030093;28;20033;-76
2024/01/06 12:52:24;;;;;;;60.53;21.03;;;;;;;;;;5034451;28;20045;-76
2024/01/06 12:54:49;;;;;;;58.13;22.63;;;;;;;;;;5050957;28;20028;-76
2024/01/06 12:57:16;;;;;;;52.93;21.80;;;;;;;;;;5051012;28;20029;-76
2024/01/06 12:59:42;;;;;;;51.50;22.10;;;;;;;;;;5051430;28;20029;-77
2024/01/06 13:02:08;;;;;;;53.87;21.83;;;;;;;;;;5033640;28;20051;-76
2024/01/06 13:04:34;;;;;;;52.60;21.93;;;;;;;;;;5049258;28;20022;-77
2024/01/06 13:07:00;;;;;;;51.77;21.13;;;;;;;;;;5051235;28;20115;-75
2024/01/06 13:09:26;;;;;;;46.47;19.77;;;;;;;;;;5050785;28;20037;-74
2024/01/06 13:11:52;;;;;;;44.63;20.73;;;;;;;;;;5049125;28;20123;-77
2024/01/06 13:14:18;;;;;;;57.20;19.03;;;;;;;;;;5049709;28;20467;-77
2024/01/06 13:16:44;;;;;;;59.10;21.00;;;;;;;;;;5045905;28;20025;-77
2024/01/06 13:19:09;;;;;;;52.50;21.40;;;;;;;;;;5030652;28;20461;-76
2024/01/06 13:21:35;;;;;;;48.80;20.20;;;;;;;;;;5029048;28;20532;-76
2024/01/06 13:24:04;;;;;;;45.17;19.60;;;;;;;;;;5029379;28;20033;-76
2024/01/06 13:26:31;;;;;;;44.70;19.33;;;;;;;;;;5030767;28;20429;-75
2024/01/06 13:28:56;;;;;;;46.67;19.25;;;;;;;;;;5033424;28;20045;-74
2024/01/06 13:31:23;;;;;;;47.30;21.03;;;;;;;;;;5049476;28;20063;-77
2024/01/06 13:33:51;;;;;;;50.55;20.55;;;;;;;;;;5049488;28;20032;-74
2024/01/06 13:36:17;;;;;;;51.50;21.30;;;;;;;;;;5049796;28;20044;-76
2024/01/06 13:38:43;;;;;;;51.93;20.53;;;;;;;;;;5049373;28;20094;-75
2024/01/06 13:41:09;;;;;;;52.57;20.70;;;;;;;;;;5042338;28;20029;-76
2024/01/06 13:43:35;;;;;;;55.63;21.37;;;;;;;;;;5029161;28;20051;-75
2024/01/06 13:46:01;;;;;;;50.67;19.97;;;;;;;;;;5038063;28;20035;-75
2024/01/06 13:48:26;;;;;;;54.17;22.00;;;;;;;;;;5039059;28;20102;-76
2024/01/06 13:50:52;;;;;;;53.27;21.03;;;;;;;;;;5037286;28;20044;-75
2024/01/06 13:53:18;;;;;;;53.80;21.13;;;;;;;;;;5029782;28;20080;-76
2024/01/06 13:55:44;;;;;;;63.30;21.70;;;;;;;;;;5028814;28;20481;-77
2024/01/06 13:58:10;;;;;;;50.97;21.53;;;;;;;;;;5029809;28;20033;-77
2024/01/06 14:00:36;;;;;;;52.43;20.73;;;;;;;;;;5042688;28;20381;-78
2024/01/06 14:03:04;;;;;;;48.67;21.73;;;;;;;;;;5049992;28;20088;-76
2024/01/06 14:05:30;;;;;;;51.70;21.53;;;;;;;;;;5049714;28;20028;-73
2024/01/06 14:07:56;;;;;;;50.37;21.50;;;;;;;;;;5047077;28;20033;-77
2024/01/06 14:10:21;;;;;;;53.77;20.83;;;;;;;;;;5045435;28;20107;-76
2024/01/06 14:12:47;;;;;;;45.67;19.53;;;;;;;;;;5032340;28;20029;-75